CheckWX is a tool to help pilots better visualize weather data.  It is not intended as a substitute for an official pre-flight weather briefing.

09:39:41 UTC

LOWW METAR
Vienna International Airport
Vienna, Austria
Current

50 mins ago

LOWW 190850Z VRB02KT 7000 NSC 04/00 Q1020 WS ALL RWY NOSIG
Observed
Feb-19 @ 08:50 UTC
Wind
  • Variable at 2 KTS
Visibility
7,001 meters
Flight Rules
MVFR
Cloud Levels
  • Clear skies
Temperature
C / 39°F
Dewpoint
C / 32°F
Humidity
75%
Altimeter
30.12" Hg
Pressure
1019.92 hPa
Previous

1 hour ago

LOWW 190820Z 14003KT 110V180 5000 BR NSC 02/M00 Q1020 WS ALL RWY NOSIG
Observed
Feb-19 @ 08:20 UTC
Wind
  • 140° at 3 KTS
Visibility
5,005 meters
Flight Rules
MVFR
Conditions
Mist
Cloud Levels
  • Clear skies
Temperature
C / 36°F
Dewpoint
C / 32°F
Humidity
87%
Altimeter
30.12" Hg
Pressure
1019.92 hPa
Previous

2 hours ago

LOWW 190750Z 14003KT 4400 BR FEW250 00/M01 Q1020 WS ALL RWY BECMG 5000 BR
Observed
Feb-19 @ 07:50 UTC
Wind
  • 140° at 3 KTS
Visibility
4,394 meters
Flight Rules
IFR
Conditions
Mist
Cloud Levels
  • Few at 25,000' AGL
Temperature
C / 32°F
Dewpoint
-1°C / 30°F
Humidity
93%
Altimeter
30.12" Hg
Pressure
1019.92 hPa